createdAt,value
2023-05-05T00:01:20.457Z,15.00
2023-05-05T00:03:28.242Z,15.00
2023-05-05T00:05:35.022Z,15.18
2023-05-05T00:07:42.418Z,15.63
2023-05-05T00:09:49.180Z,14.77
2023-05-05T00:11:56.364Z,14.90
2023-05-05T00:14:03.137Z,14.88
2023-05-05T00:16:10.673Z,15.43
2023-05-05T00:18:20.267Z,14.75
2023-05-05T00:20:27.442Z,15.00
2023-05-05T00:22:34.272Z,13.85
2023-05-05T00:24:41.500Z,14.38
2023-05-05T00:26:48.281Z,14.40
2023-05-05T00:28:55.304Z,14.00
2023-05-05T00:31:02.680Z,14.63
2023-05-05T00:33:10.339Z,14.27
2023-05-05T00:35:19.205Z,14.27
2023-05-05T00:37:26.237Z,13.70
2023-05-05T00:39:33.162Z,14.25
2023-05-05T00:41:40.277Z,13.90
2023-05-05T00:43:47.014Z,15.40
2023-05-05T00:46:01.833Z,15.30
2023-05-05T00:48:10.321Z,15.18
2023-05-05T00:50:25.346Z,15.07
2023-05-05T00:52:34.050Z,15.73
2023-05-05T00:54:41.453Z,15.90
2023-05-05T00:56:49.146Z,15.90
2023-05-05T00:58:56.229Z,15.80
2023-05-05T01:01:03.053Z,15.45
2023-05-05T01:03:10.344Z,15.65
2023-05-05T01:05:20.225Z,16.00
2023-05-05T01:07:39.389Z,15.48
2023-05-05T01:10:07.294Z,14.82
2023-05-05T01:12:27.869Z,15.25
2023-05-05T01:14:42.406Z,15.88
2023-05-05T01:16:59.882Z,15.32
2023-05-05T01:19:17.977Z,15.43
2023-05-05T01:21:32.570Z,15.05
2023-05-05T01:24:09.757Z,14.35
2023-05-05T01:26:32.092Z,15.15
2023-05-05T01:29:23.926Z,14.90
2023-05-05T01:31:52.435Z,14.85
2023-05-05T01:34:03.789Z,14.77
2023-05-05T01:38:22.752Z,15.65
2023-05-05T01:40:31.368Z,15.18
2023-05-05T01:42:41.079Z,15.77
2023-05-05T01:47:24.615Z,15.97
2023-05-05T01:49:32.504Z,14.35
2023-05-05T01:51:39.941Z,14.15
2023-05-05T01:53:48.146Z,13.70
2023-05-05T01:55:57.683Z,14.05
2023-05-05T01:58:06.604Z,13.98
2023-05-05T02:00:15.048Z,13.80
2023-05-05T02:02:25.505Z,14.88
2023-05-05T02:04:35.676Z,14.68
2023-05-05T02:06:44.367Z,13.55
2023-05-05T02:08:51.986Z,12.48
2023-05-05T02:11:00.656Z,13.23
2023-05-05T02:15:43.672Z,14.43
2023-05-05T02:17:53.255Z,13.40
2023-05-05T02:20:04.169Z,13.40
2023-05-05T02:22:11.385Z,13.55
2023-05-05T02:24:18.507Z,13.88
2023-05-05T02:26:27.793Z,13.57
2023-05-05T02:28:41.376Z,14.27
2023-05-05T02:30:51.267Z,14.00
2023-05-05T02:33:09.054Z,19.67
2023-05-05T02:35:18.996Z,19.75
2023-05-05T02:37:28.587Z,14.70
2023-05-05T02:39:44.726Z,13.98
2023-05-05T02:41:57.332Z,14.30
2023-05-05T02:44:08.308Z,14.13
2023-05-05T02:46:16.328Z,14.77
2023-05-05T02:48:28.095Z,13.95
2023-05-05T02:50:38.658Z,14.18
2023-05-05T02:52:58.182Z,14.07
2023-05-05T02:55:06.291Z,14.07
2023-05-05T02:57:22.119Z,14.27
2023-05-05T02:59:48.392Z,13.52
2023-05-05T03:02:09.652Z,14.55
2023-05-05T03:04:25.436Z,14.48
2023-05-05T03:06:45.118Z,14.18
2023-05-05T03:09:02.586Z,14.32
2023-05-05T03:11:15.245Z,13.25
2023-05-05T03:13:27.951Z,12.77
2023-05-05T03:15:42.197Z,14.13
2023-05-05T03:17:51.053Z,12.68
2023-05-05T03:20:05.388Z,13.93
2023-05-05T03:22:16.142Z,14.57
2023-05-05T03:24:25.980Z,13.75
2023-05-05T03:26:49.958Z,13.73
2023-05-05T03:29:00.586Z,14.48
2023-05-05T03:31:10.788Z,14.25
2023-05-05T03:33:20.102Z,14.85
2023-05-05T03:35:29.331Z,13.55
2023-05-05T03:37:36.821Z,14.20
2023-05-05T03:39:44.257Z,13.75
2023-05-05T03:41:52.000Z,14.50
2023-05-05T03:44:00.974Z,13.52
2023-05-05T03:46:08.210Z,14.05
2023-05-05T03:48:15.680Z,13.23
2023-05-05T03:50:23.275Z,13.90
2023-05-05T03:52:32.517Z,13.27
2023-05-05T03:54:40.296Z,14.75
2023-05-05T03:56:47.697Z,13.45
2023-05-05T03:58:54.675Z,13.43
2023-05-05T04:01:02.267Z,13.65
2023-05-05T04:03:09.580Z,13.25
2023-05-05T04:05:17.060Z,14.02
2023-05-05T04:07:24.688Z,14.73
2023-05-05T04:09:34.221Z,14.05
2023-05-05T04:11:40.995Z,13.73
2023-05-05T04:13:50.905Z,14.52
2023-05-05T04:16:00.705Z,14.15
2023-05-05T04:18:08.588Z,12.65
2023-05-05T04:20:15.869Z,13.70
2023-05-05T04:22:23.718Z,13.57
2023-05-05T04:24:30.792Z,13.70
2023-05-05T04:26:40.232Z,13.20
2023-05-05T04:28:47.306Z,14.15
2023-05-05T04:30:55.938Z,13.70
2023-05-05T04:33:03.037Z,13.60
2023-05-05T04:35:11.509Z,12.60
2023-05-05T04:37:26.277Z,12.45
2023-05-05T04:39:33.403Z,13.38
2023-05-05T04:41:41.929Z,13.23
2023-05-05T04:43:49.822Z,13.93
2023-05-05T04:45:57.100Z,13.55
2023-05-05T04:48:08.901Z,13.35
2023-05-05T04:50:16.527Z,13.27
2023-05-05T04:52:23.818Z,13.35
2023-05-05T04:54:31.489Z,13.00
2023-05-05T04:56:38.873Z,14.00
2023-05-05T04:58:47.457Z,12.88
2023-05-05T05:00:55.403Z,14.23
2023-05-05T05:03:02.559Z,14.20
2023-05-05T05:05:10.743Z,14.07
2023-05-05T05:07:17.825Z,14.98
2023-05-05T05:09:24.900Z,15.40
2023-05-05T05:11:32.997Z,14.13
2023-05-05T05:13:40.342Z,14.20
2023-05-05T05:15:49.261Z,14.20
2023-05-05T05:17:56.719Z,14.10
2023-05-05T05:20:06.117Z,14.57
2023-05-05T05:22:14.496Z,14.82
2023-05-05T05:24:22.956Z,13.88
2023-05-05T05:26:30.187Z,14.95
2023-05-05T05:28:37.424Z,14.13
2023-05-05T05:30:44.570Z,14.38
2023-05-05T05:32:53.788Z,13.98
2023-05-05T05:35:01.064Z,12.80
2023-05-05T05:37:08.350Z,13.52
2023-05-05T05:39:15.941Z,13.68
2023-05-05T05:41:23.332Z,13.85
2023-05-05T05:43:30.822Z,13.20
2023-05-05T05:45:38.447Z,14.23
2023-05-05T05:47:47.034Z,14.25
2023-05-05T05:49:56.047Z,13.52
2023-05-05T05:52:03.327Z,14.18
2023-05-05T05:54:10.863Z,13.70
2023-05-05T05:56:18.047Z,14.07
2023-05-05T05:58:26.763Z,14.27
2023-05-05T06:00:34.405Z,14.23
2023-05-05T06:02:46.774Z,13.98
2023-05-05T06:07:05.987Z,12.98
2023-05-05T06:09:13.216Z,13.77
2023-05-05T06:11:20.656Z,15.05
2023-05-05T06:13:28.660Z,14.20
2023-05-05T06:15:35.716Z,14.07
2023-05-05T06:17:44.906Z,14.75
2023-05-05T06:19:53.563Z,14.65
2023-05-05T06:22:03.732Z,13.43
2023-05-05T06:24:11.067Z,14.10
2023-05-05T06:26:18.197Z,13.65
2023-05-05T06:28:25.227Z,14.20
2023-05-05T06:30:32.304Z,13.40
2023-05-05T06:32:39.716Z,13.82
2023-05-05T06:34:48.460Z,14.20
2023-05-05T06:36:55.837Z,14.30
2023-05-05T06:39:04.621Z,13.95
2023-05-05T06:41:11.915Z,13.05
2023-05-05T06:43:18.794Z,14.30
2023-05-05T06:45:32.642Z,14.27
2023-05-05T06:47:39.572Z,14.50
2023-05-05T06:49:47.082Z,14.70
2023-05-05T06:51:53.957Z,13.95
2023-05-05T06:54:03.030Z,15.13
2023-05-05T06:56:10.527Z,14.73
2023-05-05T06:58:28.093Z,13.63
2023-05-05T07:00:35.165Z,13.50
2023-05-05T07:02:42.643Z,14.80
2023-05-05T07:04:49.486Z,14.85
2023-05-05T07:06:56.962Z,13.88
2023-05-05T07:09:05.750Z,13.73
2023-05-05T07:11:13.032Z,13.73
2023-05-05T07:13:20.315Z,13.32
2023-05-05T07:15:29.193Z,13.43
2023-05-05T07:17:36.297Z,13.02
2023-05-05T07:19:43.597Z,14.65
2023-05-05T07:21:50.793Z,14.40
2023-05-05T07:23:57.760Z,13.63
2023-05-05T07:26:06.588Z,13.52
2023-05-05T07:28:14.069Z,13.57
2023-05-05T07:30:21.041Z,14.00
2023-05-05T07:32:28.768Z,14.48
2023-05-05T07:34:35.561Z,14.25
2023-05-05T07:36:42.595Z,12.63
2023-05-05T07:38:49.409Z,13.50
2023-05-05T07:40:56.547Z,13.75
2023-05-05T07:43:05.992Z,12.70
2023-05-05T07:45:14.383Z,14.20
2023-05-05T07:47:21.510Z,13.50
2023-05-05T07:49:29.570Z,13.02
2023-05-05T07:51:36.646Z,14.18
2023-05-05T07:53:44.495Z,12.77
2023-05-05T07:55:51.352Z,12.60
2023-05-05T07:57:58.349Z,14.38
2023-05-05T08:00:07.453Z,13.40
2023-05-05T08:02:20.436Z,14.20
2023-05-05T08:04:27.345Z,13.00
2023-05-05T08:06:35.056Z,14.25
2023-05-05T08:08:42.136Z,13.40
2023-05-05T08:10:49.367Z,13.02
2023-05-05T08:12:57.076Z,12.55
2023-05-05T08:15:06.526Z,13.82
2023-05-05T08:17:13.784Z,14.18
2023-05-05T08:19:28.806Z,12.85
2023-05-05T08:21:37.680Z,14.10
2023-05-05T08:23:44.646Z,13.85
2023-05-05T08:25:51.474Z,13.52
2023-05-05T08:27:58.548Z,14.02
2023-05-05T08:30:07.599Z,14.25
2023-05-05T08:32:14.859Z,14.23
2023-05-05T08:34:21.836Z,14.02
2023-05-05T08:36:30.196Z,13.90
2023-05-05T08:38:37.328Z,13.93
2023-05-05T08:40:45.326Z,13.98
2023-05-05T08:42:52.354Z,14.20
2023-05-05T08:44:59.512Z,13.65
2023-05-05T08:47:11.376Z,14.52
2023-05-05T08:49:20.254Z,14.02
2023-05-05T08:51:33.980Z,13.18
2023-05-05T08:54:01.078Z,13.45
2023-05-05T08:56:08.726Z,12.70
2023-05-05T08:58:16.924Z,13.30
2023-05-05T09:00:24.928Z,13.20
2023-05-05T09:02:34.567Z,13.13
2023-05-05T09:04:41.899Z,13.88
2023-05-05T09:06:49.442Z,13.65
2023-05-05T09:08:58.932Z,13.25
2023-05-05T09:11:07.282Z,12.50
2023-05-05T09:13:14.475Z,12.65
2023-05-05T09:15:21.868Z,14.10
2023-05-05T09:17:29.268Z,13.32
2023-05-05T09:19:55.570Z,12.77
2023-05-05T09:22:02.655Z,12.88
2023-05-05T09:24:14.131Z,12.95
2023-05-05T09:26:20.906Z,12.57
2023-05-05T09:28:29.007Z,13.27
2023-05-05T09:30:36.166Z,12.88
2023-05-05T09:32:50.749Z,13.05
2023-05-05T09:35:06.033Z,12.05
2023-05-05T09:37:13.442Z,13.23
2023-05-05T09:39:22.628Z,12.20
2023-05-05T09:41:41.547Z,12.65
2023-05-05T09:44:04.048Z,12.85
2023-05-05T09:46:11.690Z,12.38
2023-05-05T09:48:29.046Z,12.25
2023-05-05T09:50:46.363Z,12.00
2023-05-05T09:53:00.178Z,12.15
2023-05-05T09:55:08.154Z,11.27
2023-05-05T09:57:29.816Z,10.73
2023-05-05T09:59:36.952Z,12.40
2023-05-05T10:01:44.787Z,12.05
2023-05-05T10:03:54.903Z,11.07
2023-05-05T10:06:05.660Z,12.95
2023-05-05T10:08:16.699Z,12.23
2023-05-05T10:10:23.560Z,12.05
2023-05-05T10:12:31.708Z,12.45
2023-05-05T10:14:40.377Z,12.20
2023-05-05T10:16:51.918Z,11.65
2023-05-05T10:18:59.552Z,12.20
2023-05-05T10:21:09.295Z,11.73
2023-05-05T10:23:27.590Z,12.00
2023-05-05T10:25:42.353Z,13.27
2023-05-05T10:27:53.467Z,12.23
2023-05-05T10:32:40.783Z,13.45
2023-05-05T10:34:52.861Z,14.13
2023-05-05T10:37:03.264Z,13.68
2023-05-05T10:39:11.724Z,13.70
2023-05-05T10:41:21.622Z,14.43
2023-05-05T10:43:29.590Z,14.27
2023-05-05T10:45:36.609Z,13.93
2023-05-05T10:47:45.241Z,13.80
2023-05-05T10:49:58.796Z,13.32
2023-05-05T10:52:15.807Z,13.23
2023-05-05T10:54:31.414Z,13.38
2023-05-05T10:56:39.138Z,14.07
2023-05-05T10:58:59.057Z,13.27
2023-05-05T11:01:07.868Z,13.35
2023-05-05T11:03:25.086Z,15.10
2023-05-05T11:05:32.628Z,14.05
2023-05-05T11:07:41.506Z,13.32
2023-05-05T11:09:59.560Z,13.05
2023-05-05T11:12:07.753Z,13.35
2023-05-05T11:14:24.721Z,13.02
2023-05-05T11:16:48.902Z,13.90
2023-05-05T11:18:56.024Z,12.18
2023-05-05T11:21:19.387Z,12.68
2023-05-05T11:23:28.880Z,11.70
2023-05-05T11:25:52.381Z,13.68
2023-05-05T11:28:09.105Z,13.93
2023-05-05T11:30:17.959Z,11.60
2023-05-05T11:32:26.047Z,12.35
2023-05-05T11:34:33.103Z,13.40
2023-05-05T11:36:44.753Z,17.48
2023-05-05T11:41:15.476Z,12.38
2023-05-05T11:43:23.520Z,18.60
2023-05-05T11:45:30.757Z,13.32
2023-05-05T11:47:37.918Z,13.10
2023-05-05T11:49:45.597Z,15.35
2023-05-05T11:52:00.378Z,15.05
2023-05-05T11:54:09.468Z,15.23
2023-05-05T11:56:19.944Z,14.43
2023-05-05T11:58:27.052Z,15.00
2023-05-05T12:00:38.998Z,16.27
2023-05-05T12:02:46.544Z,15.23
2023-05-05T12:04:53.945Z,15.40
2023-05-05T12:07:01.674Z,15.50
2023-05-05T12:09:10.382Z,15.50
2023-05-05T12:11:17.568Z,14.75
2023-05-05T12:13:24.705Z,15.13
2023-05-05T12:15:35.775Z,14.93
2023-05-05T12:17:45.872Z,15.27
2023-05-05T12:19:55.258Z,14.73
2023-05-05T12:22:02.389Z,14.98
2023-05-05T12:24:16.533Z,15.80
2023-05-05T12:26:30.372Z,14.80
2023-05-05T12:28:49.148Z,15.43
2023-05-05T12:31:02.415Z,15.57
2023-05-05T12:33:11.113Z,15.23
2023-05-05T12:35:18.304Z,15.73
2023-05-05T12:37:26.869Z,15.48
2023-05-05T12:39:40.801Z,14.60
2023-05-05T12:41:48.141Z,14.35
2023-05-05T12:43:59.546Z,14.40
2023-05-05T12:46:09.584Z,13.25
2023-05-05T12:48:28.678Z,13.68
2023-05-05T12:50:36.480Z,13.80
2023-05-05T12:52:47.239Z,13.40
2023-05-05T12:55:02.409Z,13.52
2023-05-05T12:57:15.687Z,13.48
2023-05-05T12:59:33.051Z,14.32
2023-05-05T13:01:40.819Z,15.35
2023-05-05T13:03:48.071Z,14.60
2023-05-05T13:05:54.761Z,14.77
2023-05-05T13:08:01.938Z,14.63
2023-05-05T13:10:14.542Z,14.35
2023-05-05T13:12:23.239Z,15.15
2023-05-05T13:14:31.671Z,14.93
2023-05-05T13:16:38.912Z,14.45
2023-05-05T13:18:49.581Z,13.88
2023-05-05T13:20:57.005Z,13.43
2023-05-05T13:23:04.533Z,14.43
2023-05-05T13:25:13.104Z,14.20
2023-05-05T13:27:20.234Z,13.90
2023-05-05T13:29:31.089Z,14.20
2023-05-05T13:31:38.934Z,14.52
2023-05-05T13:33:46.030Z,15.10
2023-05-05T13:35:53.345Z,14.75
2023-05-05T13:38:00.294Z,14.15
2023-05-05T13:40:08.346Z,14.60
2023-05-05T13:42:16.957Z,14.52
2023-05-05T13:44:24.754Z,15.63
2023-05-05T13:46:31.752Z,14.63
2023-05-05T13:48:39.011Z,15.82
2023-05-05T13:50:46.054Z,15.95
2023-05-05T13:52:53.373Z,14.63
2023-05-05T13:55:00.197Z,14.75
2023-05-05T13:57:08.930Z,15.20
2023-05-05T13:59:17.993Z,14.52
2023-05-05T14:01:25.449Z,14.15
2023-05-05T14:03:32.549Z,14.35
2023-05-05T14:05:43.531Z,16.83
2023-05-05T14:07:50.468Z,15.52
2023-05-05T14:09:57.797Z,14.98
2023-05-05T14:12:04.772Z,14.75
2023-05-05T14:14:12.361Z,14.63
2023-05-05T14:16:21.435Z,15.32
2023-05-05T14:18:29.337Z,15.48
2023-05-05T14:20:36.672Z,15.65
2023-05-05T14:22:44.831Z,15.98
2023-05-05T14:24:51.855Z,15.93
2023-05-05T14:26:59.242Z,15.73
2023-05-05T14:29:06.029Z,15.95
2023-05-05T14:31:13.463Z,18.77
2023-05-05T14:33:23.140Z,20.75
2023-05-05T14:35:30.219Z,20.15
2023-05-05T14:37:37.557Z,19.95
2023-05-05T14:39:44.975Z,19.67
2023-05-05T14:41:52.283Z,21.25
2023-05-05T14:44:00.234Z,19.30
2023-05-05T14:46:07.967Z,19.58
2023-05-05T14:48:15.368Z,18.23
2023-05-05T14:50:24.086Z,19.10
2023-05-05T14:52:31.204Z,19.67
2023-05-05T14:54:38.136Z,19.13
2023-05-05T14:56:45.389Z,19.13
2023-05-05T14:58:53.209Z,18.63
2023-05-05T15:01:01.471Z,18.85
2023-05-05T15:03:08.450Z,18.50
2023-05-05T15:05:15.597Z,18.98
2023-05-05T15:07:29.257Z,17.40
2023-05-05T15:09:36.286Z,17.98
2023-05-05T15:11:44.969Z,19.23
2023-05-05T15:13:52.304Z,16.15
2023-05-05T15:15:59.018Z,16.83
2023-05-05T15:18:06.446Z,15.77
2023-05-05T15:20:14.187Z,16.30
2023-05-05T15:22:23.631Z,16.42
2023-05-05T15:24:30.937Z,17.13
2023-05-05T15:26:38.096Z,16.42
2023-05-05T15:28:45.168Z,18.20
2023-05-05T15:30:52.196Z,19.17
2023-05-05T15:32:59.644Z,18.50
2023-05-05T15:35:07.249Z,19.85
2023-05-05T15:37:14.818Z,18.92
2023-05-05T15:39:23.386Z,20.50
2023-05-05T15:41:31.333Z,18.60
2023-05-05T15:43:38.460Z,18.17
2023-05-05T15:45:45.537Z,19.35
2023-05-05T15:47:53.772Z,18.08
2023-05-05T15:50:01.040Z,18.67
2023-05-05T15:52:08.103Z,18.40
2023-05-05T15:54:15.187Z,17.77
2023-05-05T15:56:24.573Z,18.83
2023-05-05T15:58:31.851Z,18.13
2023-05-05T16:00:38.828Z,17.48
2023-05-05T16:02:46.138Z,18.60
2023-05-05T16:04:53.192Z,17.15
2023-05-05T16:07:00.743Z,16.80
2023-05-05T16:09:07.920Z,17.65
2023-05-05T16:11:15.197Z,19.75
2023-05-05T16:13:23.877Z,18.95
2023-05-05T16:15:31.100Z,18.35
2023-05-05T16:17:38.122Z,17.88
2023-05-05T16:19:46.024Z,17.63
2023-05-05T16:21:57.658Z,17.73
2023-05-05T16:24:04.763Z,16.50
2023-05-05T16:26:11.876Z,17.13
2023-05-05T16:28:19.615Z,17.88
2023-05-05T16:30:28.279Z,17.42
2023-05-05T16:32:35.624Z,15.95
2023-05-05T16:34:42.694Z,17.10
2023-05-05T16:36:49.979Z,16.60
2023-05-05T16:38:57.110Z,16.65
2023-05-05T16:41:04.414Z,17.20
2023-05-05T16:43:11.336Z,16.75
2023-05-05T16:45:18.611Z,19.40
2023-05-05T16:47:28.288Z,17.83
2023-05-05T16:49:35.542Z,17.38
2023-05-05T16:51:42.296Z,17.08
2023-05-05T16:53:49.377Z,16.75
2023-05-05T16:55:56.610Z,15.80
2023-05-05T16:58:06.666Z,16.38
2023-05-05T17:00:14.301Z,14.85
2023-05-05T17:02:21.378Z,14.93
2023-05-05T17:04:30.100Z,15.73
2023-05-05T17:06:37.604Z,15.20
2023-05-05T17:08:44.566Z,15.95
2023-05-05T17:10:51.641Z,14.50
2023-05-05T17:12:58.468Z,16.17
2023-05-05T17:15:05.753Z,15.38
2023-05-05T17:17:13.390Z,14.80
2023-05-05T17:19:20.183Z,14.68
2023-05-05T17:21:30.267Z,16.75
2023-05-05T17:23:37.135Z,15.95
2023-05-05T17:25:44.374Z,16.45
2023-05-05T17:27:51.533Z,16.33
2023-05-05T17:29:58.535Z,16.02
2023-05-05T17:32:05.522Z,15.98
2023-05-05T17:34:12.895Z,16.27
2023-05-05T17:36:19.834Z,16.30
2023-05-05T17:38:28.665Z,15.65
2023-05-05T17:40:35.667Z,16.60
2023-05-05T17:42:43.002Z,16.52
2023-05-05T17:44:49.823Z,16.23
2023-05-05T17:46:56.851Z,17.10
2023-05-05T17:49:03.911Z,15.93
2023-05-05T17:51:11.198Z,17.05
2023-05-05T17:53:18.141Z,17.67
2023-05-05T17:55:27.167Z,16.83
2023-05-05T17:57:34.196Z,15.80
2023-05-05T17:59:41.478Z,17.38
2023-05-05T18:01:48.303Z,16.85
2023-05-05T18:03:55.681Z,16.60
2023-05-05T18:06:03.306Z,15.75
2023-05-05T18:08:10.418Z,17.48
2023-05-05T18:10:17.699Z,17.00
2023-05-05T18:12:26.882Z,15.82
2023-05-05T18:14:34.519Z,15.93
2023-05-05T18:16:44.823Z,16.45
2023-05-05T18:18:51.727Z,17.70
2023-05-05T18:20:58.553Z,17.15
2023-05-05T18:23:05.655Z,16.55
2023-05-05T18:25:13.436Z,17.10
2023-05-05T18:27:20.890Z,16.27
2023-05-05T18:29:29.951Z,17.02
2023-05-05T18:31:36.965Z,15.90
2023-05-05T18:33:45.129Z,16.38
2023-05-05T18:35:54.165Z,16.33
2023-05-05T18:38:01.399Z,16.30
2023-05-05T18:40:10.958Z,16.13
2023-05-05T18:42:17.812Z,16.38
2023-05-05T18:44:25.061Z,16.50
2023-05-05T18:46:34.032Z,16.60
2023-05-05T18:48:44.238Z,17.95
2023-05-05T18:50:52.376Z,17.25
2023-05-05T18:52:59.659Z,16.85
2023-05-05T18:55:06.805Z,18.08
2023-05-05T18:57:14.122Z,17.83
2023-05-05T18:59:21.151Z,17.33
2023-05-05T19:01:30.491Z,17.05
2023-05-05T19:03:39.278Z,17.33
2023-05-05T19:05:46.743Z,17.55
2023-05-05T19:07:53.720Z,17.92
2023-05-05T19:10:01.002Z,17.48
2023-05-05T19:12:18.941Z,16.20
2023-05-05T19:14:26.577Z,17.15
2023-05-05T19:16:33.525Z,15.65
2023-05-05T19:18:42.064Z,15.63
2023-05-05T19:20:49.043Z,17.42
2023-05-05T19:22:56.381Z,17.77
2023-05-05T19:25:03.570Z,17.20
2023-05-05T19:27:16.432Z,16.63
2023-05-05T19:29:24.064Z,17.23
2023-05-05T19:31:32.090Z,17.33
2023-05-05T19:33:43.345Z,16.98
2023-05-05T19:35:50.219Z,17.50
2023-05-05T19:37:58.272Z,16.58
2023-05-05T19:40:05.132Z,16.58
2023-05-05T19:42:12.480Z,16.13
2023-05-05T19:44:19.815Z,17.55
2023-05-05T19:46:27.690Z,17.83
2023-05-05T19:48:34.535Z,16.77
2023-05-05T19:50:43.673Z,16.83
2023-05-05T19:52:50.658Z,16.60
2023-05-05T19:54:58.796Z,17.35
2023-05-05T19:57:06.179Z,17.17
2023-05-05T19:59:13.567Z,17.50
2023-05-05T20:01:20.543Z,17.10
2023-05-05T20:03:27.904Z,16.25
2023-05-05T20:05:34.716Z,16.65
2023-05-05T20:07:44.299Z,16.85
2023-05-05T20:09:51.368Z,16.35
2023-05-05T20:11:59.328Z,16.00
2023-05-05T20:14:06.202Z,17.52
2023-05-05T20:16:13.402Z,17.50
2023-05-05T20:18:20.559Z,17.35
2023-05-05T20:20:27.686Z,16.48
2023-05-05T20:22:34.610Z,17.20
2023-05-05T20:24:43.381Z,17.17
2023-05-05T20:26:50.409Z,16.75
2023-05-05T20:28:57.526Z,16.95
2023-05-05T20:31:04.586Z,17.00
2023-05-05T20:33:12.228Z,17.17
2023-05-05T20:35:31.103Z,16.90
2023-05-05T20:37:38.455Z,17.75
2023-05-05T20:39:48.248Z,17.67
2023-05-05T20:41:55.592Z,16.25
2023-05-05T20:44:02.421Z,17.27
2023-05-05T20:46:13.244Z,17.08
2023-05-05T20:48:20.406Z,15.77
2023-05-05T20:50:27.636Z,16.42
2023-05-05T20:52:36.304Z,16.42
2023-05-05T20:54:43.383Z,15.93
2023-05-05T20:56:51.999Z,15.95
2023-05-05T20:58:59.438Z,17.13
2023-05-05T21:01:06.603Z,16.60
2023-05-05T21:03:13.720Z,16.95
2023-05-05T21:05:20.518Z,15.68
2023-05-05T21:07:27.649Z,16.52
2023-05-05T21:09:36.214Z,16.73
2023-05-05T21:11:43.445Z,16.92
2023-05-05T21:13:52.219Z,17.10
2023-05-05T21:15:59.293Z,16.30
2023-05-05T21:18:06.083Z,17.42
2023-05-05T21:20:14.370Z,17.27
2023-05-05T21:22:21.501Z,15.80
2023-05-05T21:24:29.100Z,17.02
2023-05-05T21:26:36.076Z,16.80
2023-05-05T21:28:43.507Z,16.60
2023-05-05T21:33:02.917Z,16.55
2023-05-05T21:35:13.050Z,17.17
2023-05-05T21:37:20.633Z,17.07
2023-05-05T21:39:27.711Z,17.27
2023-05-05T21:41:34.945Z,17.10
2023-05-05T21:43:41.772Z,17.55
2023-05-05T21:45:50.805Z,17.02
2023-05-05T21:47:57.733Z,17.08
2023-05-05T21:50:04.824Z,17.17
2023-05-05T21:52:11.883Z,17.45
2023-05-05T21:54:19.222Z,17.98
2023-05-05T21:56:26.201Z,17.15
2023-05-05T21:58:33.525Z,17.92
2023-05-05T22:00:40.453Z,16.45
2023-05-05T22:02:49.546Z,16.42
2023-05-05T22:04:56.674Z,15.50
2023-05-05T22:07:03.896Z,17.73
2023-05-05T22:09:10.651Z,17.88
2023-05-05T22:11:18.075Z,17.42
2023-05-05T22:13:24.833Z,18.00
2023-05-05T22:15:42.658Z,17.25
2023-05-05T22:17:55.220Z,16.65
2023-05-05T22:20:02.454Z,16.65
2023-05-05T22:22:09.473Z,18.17
2023-05-05T22:24:16.907Z,17.63
2023-05-05T22:26:26.045Z,17.48
2023-05-05T22:28:33.317Z,17.50
2023-05-05T22:30:40.648Z,17.70
2023-05-05T22:32:48.011Z,17.83
2023-05-05T22:34:56.605Z,18.23
2023-05-05T22:37:04.349Z,17.10
2023-05-05T22:39:11.374Z,16.52
2023-05-05T22:41:18.648Z,16.60
2023-05-05T22:43:25.787Z,17.50
2023-05-05T22:45:32.610Z,17.42
2023-05-05T22:47:39.869Z,17.95
2023-05-05T22:49:46.980Z,17.48
2023-05-05T22:51:56.258Z,17.67
2023-05-05T22:54:03.405Z,17.15
2023-05-05T22:56:10.927Z,16.77
2023-05-05T22:58:17.963Z,17.23
2023-05-05T23:00:25.395Z,17.00
2023-05-05T23:02:32.721Z,17.08
2023-05-05T23:04:40.047Z,16.63
2023-05-05T23:06:47.096Z,17.20
2023-05-05T23:08:56.016Z,16.60
2023-05-05T23:11:03.298Z,16.63
2023-05-05T23:13:10.347Z,16.95
2023-05-05T23:15:17.354Z,17.17
2023-05-05T23:17:24.496Z,16.75
2023-05-05T23:19:33.358Z,17.15
2023-05-05T23:21:51.997Z,16.48
2023-05-05T23:24:01.970Z,16.95
2023-05-05T23:26:09.188Z,18.13
2023-05-05T23:28:16.062Z,17.13
2023-05-05T23:30:23.400Z,17.35
2023-05-05T23:32:30.497Z,17.60
2023-05-05T23:34:37.812Z,16.45
2023-05-05T23:36:44.899Z,16.45
2023-05-05T23:38:52.078Z,17.83
2023-05-05T23:41:03.360Z,16.77
2023-05-05T23:43:10.686Z,16.88
2023-05-05T23:45:19.235Z,16.52
2023-05-05T23:47:26.769Z,18.10
2023-05-05T23:49:33.926Z,17.42
2023-05-05T23:51:41.446Z,16.92
2023-05-05T23:53:48.590Z,16.23
2023-05-05T23:55:55.872Z,16.33
